createdAt,value
2017-12-21T00:01:50.205Z,4.50
2017-12-21T00:04:18.557Z,4.40
2017-12-21T00:06:46.882Z,4.40
2017-12-21T00:09:15.193Z,4.40
2017-12-21T00:11:43.568Z,4.40
2017-12-21T00:14:11.904Z,4.40
2017-12-21T00:16:40.212Z,4.50
2017-12-21T00:19:08.577Z,4.50
2017-12-21T00:21:36.889Z,4.40
2017-12-21T00:24:05.188Z,4.40
2017-12-21T00:26:33.526Z,4.50
2017-12-21T00:29:01.859Z,4.40
2017-12-21T00:31:30.164Z,4.40
2017-12-21T00:33:59.236Z,4.50
2017-12-21T00:36:27.562Z,4.50
2017-12-21T00:38:55.924Z,4.50
2017-12-21T00:41:24.239Z,4.50
2017-12-21T00:43:52.547Z,4.50
2017-12-21T00:46:20.885Z,4.50
2017-12-21T00:48:49.220Z,4.50
2017-12-21T00:51:17.541Z,4.50
2017-12-21T00:53:45.868Z,4.50
2017-12-21T00:56:14.186Z,4.50
2017-12-21T00:58:42.488Z,4.60
2017-12-21T01:01:11.617Z,4.60
2017-12-21T01:03:40.749Z,4.50
2017-12-21T01:06:09.853Z,4.50
2017-12-21T01:08:38.185Z,4.50
2017-12-21T01:11:07.304Z,4.50
2017-12-21T01:13:35.644Z,4.50
2017-12-21T01:16:03.945Z,4.50
2017-12-21T01:18:32.270Z,4.50
2017-12-21T01:21:00.566Z,4.50
2017-12-21T01:23:28.927Z,4.50
2017-12-21T01:25:57.255Z,4.50
2017-12-21T01:28:25.576Z,4.50
2017-12-21T01:30:53.910Z,4.50
2017-12-21T01:33:23.034Z,4.60
2017-12-21T01:35:51.360Z,4.60
2017-12-21T01:38:20.436Z,4.50
2017-12-21T01:40:48.862Z,4.60
2017-12-21T01:43:17.186Z,4.60
2017-12-21T01:45:45.496Z,4.60
2017-12-21T01:48:13.825Z,4.70
2017-12-21T01:50:42.954Z,4.60
2017-12-21T01:53:12.020Z,4.60
2017-12-21T01:55:40.380Z,4.60
2017-12-21T01:58:08.697Z,4.60
2017-12-21T02:00:36.998Z,4.60
2017-12-21T02:03:05.443Z,4.60
2017-12-21T02:05:34.556Z,4.60
2017-12-21T02:08:02.852Z,4.70
2017-12-21T02:10:31.177Z,4.60
2017-12-21T02:12:59.555Z,4.70
2017-12-21T02:15:27.911Z,4.70
2017-12-21T02:17:56.278Z,4.60
2017-12-21T02:20:24.680Z,4.60
2017-12-21T02:25:40.304Z,4.70
2017-12-21T02:28:08.612Z,4.70
2017-12-21T02:30:36.919Z,4.70
2017-12-21T02:33:05.249Z,4.70
2017-12-21T02:35:34.324Z,4.80
2017-12-21T02:38:02.656Z,4.80
2017-12-21T02:40:30.964Z,4.80
2017-12-21T02:42:59.345Z,4.80
2017-12-21T02:45:27.645Z,4.70
2017-12-21T02:47:55.995Z,4.80
2017-12-21T02:50:25.059Z,4.70
2017-12-21T02:52:53.392Z,4.70
2017-12-21T02:55:21.707Z,4.70
2017-12-21T02:57:50.069Z,4.70
2017-12-21T03:00:18.474Z,4.80
2017-12-21T03:02:46.789Z,4.80
2017-12-21T03:05:15.146Z,4.80
2017-12-21T03:07:43.538Z,4.70
2017-12-21T03:10:12.599Z,4.80
2017-12-21T03:12:40.925Z,4.70
2017-12-21T03:15:09.265Z,4.80
2017-12-21T03:17:37.624Z,4.80
2017-12-21T03:20:05.949Z,4.80
2017-12-21T03:22:34.361Z,4.80
2017-12-21T03:25:03.455Z,4.80
2017-12-21T03:27:31.786Z,4.80
2017-12-21T03:30:00.849Z,4.90
2017-12-21T03:32:29.182Z,4.80
2017-12-21T03:34:57.492Z,4.80
2017-12-21T03:37:25.808Z,4.80
2017-12-21T03:39:54.132Z,4.90
2017-12-21T03:42:22.455Z,5.00
2017-12-21T03:44:50.808Z,5.00
2017-12-21T03:47:19.149Z,5.00
2017-12-21T03:49:48.257Z,5.00
2017-12-21T03:52:16.602Z,4.90
2017-12-21T03:54:44.922Z,4.90
2017-12-21T03:57:13.260Z,4.90
2017-12-21T03:59:41.578Z,4.80
2017-12-21T04:02:11.292Z,4.80
2017-12-21T04:04:39.604Z,4.80
2017-12-21T04:07:08.677Z,5.00
2017-12-21T04:09:37.009Z,4.90
2017-12-21T04:12:05.327Z,4.90
2017-12-21T04:14:33.645Z,4.90
2017-12-21T04:17:01.948Z,4.90
2017-12-21T04:19:30.303Z,4.90
2017-12-21T04:21:59.395Z,5.00
2017-12-21T04:24:27.697Z,5.00
2017-12-21T04:26:56.036Z,4.90
2017-12-21T04:29:25.133Z,4.90
2017-12-21T04:31:53.441Z,4.90
2017-12-21T04:34:21.760Z,4.90
2017-12-21T04:36:50.092Z,4.90
2017-12-21T04:39:18.404Z,4.90
2017-12-21T04:41:46.735Z,4.90
2017-12-21T04:44:15.040Z,5.00
2017-12-21T04:46:43.333Z,5.00
2017-12-21T04:49:11.673Z,5.00
2017-12-21T04:51:39.986Z,5.00
2017-12-21T04:54:08.306Z,5.00
2017-12-21T04:56:37.369Z,5.00
2017-12-21T04:59:05.702Z,5.00
2017-12-21T05:01:34.013Z,5.00
2017-12-21T05:04:02.332Z,5.00
2017-12-21T05:06:31.471Z,4.90
2017-12-21T05:08:59.826Z,4.90
2017-12-21T05:11:28.156Z,4.90
2017-12-21T05:13:57.210Z,5.00
2017-12-21T05:16:25.546Z,5.00
2017-12-21T05:18:53.863Z,4.90
2017-12-21T05:21:22.193Z,5.00
2017-12-21T05:23:51.314Z,4.90
2017-12-21T05:26:20.401Z,4.90
2017-12-21T05:28:48.703Z,4.90
2017-12-21T05:31:17.037Z,4.90
2017-12-21T05:33:45.357Z,4.90
2017-12-21T05:36:13.678Z,5.00
2017-12-21T05:38:41.992Z,5.00
2017-12-21T05:41:10.305Z,5.00
2017-12-21T05:43:38.628Z,5.00
2017-12-21T05:46:07.246Z,5.00
2017-12-21T05:48:35.592Z,5.00
2017-12-21T05:51:04.662Z,5.00
2017-12-21T05:53:33.000Z,4.90
2017-12-21T05:56:02.094Z,5.00
2017-12-21T05:58:30.436Z,5.00
2017-12-21T06:00:59.529Z,5.00
2017-12-21T06:03:27.848Z,5.00
2017-12-21T06:05:56.941Z,5.00
2017-12-21T06:08:25.265Z,5.00
2017-12-21T06:10:54.372Z,5.00
2017-12-21T06:13:22.678Z,5.00
2017-12-21T06:15:51.027Z,5.00
2017-12-21T06:18:19.352Z,5.00
2017-12-21T06:20:47.670Z,5.00
2017-12-21T06:23:15.970Z,5.10
2017-12-21T06:25:44.292Z,5.10
2017-12-21T06:28:12.609Z,5.10
2017-12-21T06:30:41.707Z,5.10
2017-12-21T06:33:10.068Z,5.10
2017-12-21T06:35:38.387Z,5.10
2017-12-21T06:38:06.717Z,5.10
2017-12-21T06:40:35.029Z,5.00
2017-12-21T06:43:03.344Z,5.00
2017-12-21T06:45:32.421Z,5.10
2017-12-21T06:48:00.728Z,5.00
2017-12-21T06:50:29.110Z,5.00
2017-12-21T06:52:57.436Z,5.10
2017-12-21T06:55:25.785Z,5.10
2017-12-21T06:57:54.870Z,5.10
2017-12-21T07:00:23.233Z,5.10
2017-12-21T07:02:51.554Z,5.10
2017-12-21T07:05:19.869Z,5.10
2017-12-21T07:07:48.235Z,5.10
2017-12-21T07:10:16.545Z,5.00
2017-12-21T07:12:44.865Z,5.10
2017-12-21T07:15:13.238Z,5.10
2017-12-21T07:17:41.582Z,5.10
2017-12-21T07:20:09.906Z,5.10
2017-12-21T07:22:38.204Z,5.10
2017-12-21T07:25:06.554Z,5.10
2017-12-21T07:27:35.649Z,5.10
2017-12-21T07:30:03.964Z,5.10
2017-12-21T07:32:33.073Z,5.20
2017-12-21T07:35:02.171Z,5.20
2017-12-21T07:37:30.589Z,5.20
2017-12-21T07:40:04.646Z,5.20
2017-12-21T07:42:33.110Z,5.20
2017-12-21T07:45:02.204Z,5.30
2017-12-21T07:47:30.589Z,5.20
2017-12-21T07:49:58.905Z,5.30
2017-12-21T07:52:27.215Z,5.20
2017-12-21T07:54:55.550Z,5.30
2017-12-21T07:57:23.881Z,5.30
2017-12-21T07:59:52.304Z,5.20
2017-12-21T08:02:20.643Z,5.30
2017-12-21T08:04:49.011Z,5.30
2017-12-21T08:07:17.350Z,5.40
2017-12-21T08:09:45.673Z,5.30
2017-12-21T08:12:14.027Z,5.30
2017-12-21T08:14:42.328Z,5.30
2017-12-21T08:17:11.457Z,5.40
2017-12-21T08:19:39.807Z,5.40
2017-12-21T08:22:08.108Z,5.40
2017-12-21T08:24:37.911Z,5.40
2017-12-21T08:27:06.231Z,5.40
2017-12-21T08:29:35.638Z,5.40
2017-12-21T08:32:03.983Z,5.40
2017-12-21T08:34:32.387Z,5.50
2017-12-21T08:37:00.730Z,5.50
2017-12-21T08:39:29.068Z,5.40
2017-12-21T08:41:57.393Z,5.40
2017-12-21T08:44:25.726Z,5.40
2017-12-21T08:46:54.051Z,5.40
2017-12-21T08:49:22.376Z,5.50
2017-12-21T08:51:51.553Z,5.50
2017-12-21T08:54:19.975Z,5.50
2017-12-21T08:56:48.292Z,5.50
2017-12-21T08:59:16.620Z,5.60
2017-12-21T09:01:45.700Z,5.50
2017-12-21T09:04:14.017Z,5.50
2017-12-21T09:06:42.390Z,5.50
2017-12-21T09:09:10.712Z,5.50
2017-12-21T09:11:39.034Z,5.40
2017-12-21T09:14:08.120Z,5.50
2017-12-21T09:16:37.037Z,5.50
2017-12-21T09:19:06.214Z,5.40
2017-12-21T09:21:34.541Z,5.50
2017-12-21T09:24:02.883Z,5.50
2017-12-21T09:26:31.980Z,5.60
2017-12-21T09:29:00.413Z,5.60
2017-12-21T09:31:28.749Z,5.70
2017-12-21T09:33:57.090Z,5.60
2017-12-21T09:36:25.422Z,5.60
2017-12-21T09:38:53.750Z,5.70
2017-12-21T09:41:22.856Z,5.70
2017-12-21T09:43:51.192Z,5.60
2017-12-21T09:46:20.292Z,5.70
2017-12-21T09:48:48.644Z,5.70
2017-12-21T09:51:17.746Z,5.80
2017-12-21T09:53:46.036Z,5.70
2017-12-21T09:56:14.368Z,5.80
2017-12-21T09:58:42.675Z,5.70
2017-12-21T10:01:11.762Z,5.80
2017-12-21T10:03:40.116Z,5.80
2017-12-21T10:06:08.922Z,5.80
2017-12-21T10:08:38.059Z,5.80
2017-12-21T10:11:06.410Z,5.80
2017-12-21T10:13:35.509Z,5.80
2017-12-21T10:16:03.848Z,5.80
2017-12-21T10:18:32.173Z,5.80
2017-12-21T10:21:00.543Z,5.80
2017-12-21T10:23:28.858Z,5.80
2017-12-21T10:25:57.937Z,5.90
2017-12-21T10:28:26.257Z,5.90
2017-12-21T10:30:54.596Z,5.90
2017-12-21T10:33:22.902Z,5.90
2017-12-21T10:35:51.197Z,5.90
2017-12-21T10:38:20.301Z,5.90
2017-12-21T10:40:48.653Z,5.90
2017-12-21T10:43:17.761Z,6.00
2017-12-21T10:45:46.069Z,6.00
2017-12-21T10:48:14.380Z,6.00
2017-12-21T10:50:42.717Z,6.00
2017-12-21T10:53:11.050Z,6.00
2017-12-21T10:55:39.413Z,6.00
2017-12-21T10:58:07.748Z,6.00
2017-12-21T11:00:36.112Z,6.00
2017-12-21T11:03:04.442Z,6.00
2017-12-21T11:05:32.789Z,5.90
2017-12-21T11:08:01.142Z,6.00
2017-12-21T11:10:29.476Z,6.10
2017-12-21T11:12:58.590Z,6.10
2017-12-21T11:15:26.909Z,6.10
2017-12-21T11:17:55.224Z,6.10
2017-12-21T11:20:23.574Z,6.10
2017-12-21T11:22:51.881Z,6.10
2017-12-21T11:25:20.989Z,6.10
2017-12-21T11:27:49.331Z,6.00
2017-12-21T11:30:17.666Z,6.10
2017-12-21T11:32:46.032Z,6.10
2017-12-21T11:35:14.356Z,6.00
2017-12-21T11:37:43.441Z,6.00
2017-12-21T11:40:11.778Z,6.00
2017-12-21T11:42:40.142Z,6.10
2017-12-21T11:45:09.233Z,6.10
2017-12-21T11:47:37.632Z,6.10
2017-12-21T11:50:05.933Z,6.10
2017-12-21T11:52:34.240Z,6.10
2017-12-21T11:55:03.415Z,6.20
2017-12-21T11:57:31.748Z,6.20
2017-12-21T12:00:00.081Z,6.30
2017-12-21T12:02:28.413Z,6.20
2017-12-21T12:04:56.728Z,6.20
2017-12-21T12:07:25.057Z,6.20
2017-12-21T12:09:53.392Z,6.20
2017-12-21T12:12:21.757Z,6.20
2017-12-21T12:14:50.868Z,6.20
2017-12-21T12:17:19.185Z,6.20
2017-12-21T12:19:48.335Z,6.30
2017-12-21T12:22:16.639Z,6.20
2017-12-21T12:24:45.729Z,6.20
2017-12-21T12:27:14.085Z,6.20
2017-12-21T12:29:42.433Z,6.20
2017-12-21T12:41:08.477Z,6.40
2017-12-21T12:43:36.781Z,6.30
2017-12-21T12:46:05.115Z,6.30
2017-12-21T12:48:33.467Z,6.40
2017-12-21T12:51:01.801Z,6.40
2017-12-21T12:53:30.120Z,6.30
2017-12-21T12:55:58.418Z,6.30
2017-12-21T12:58:27.582Z,6.40
2017-12-21T13:00:55.909Z,6.40
2017-12-21T13:03:25.008Z,6.40
2017-12-21T13:05:53.305Z,6.40
2017-12-21T13:08:21.605Z,6.50
2017-12-21T13:10:49.944Z,6.50
2017-12-21T13:13:19.016Z,6.50
2017-12-21T13:15:47.334Z,6.40
2017-12-21T13:18:15.669Z,6.50
2017-12-21T13:20:44.734Z,6.70
2017-12-21T13:23:13.096Z,6.60
2017-12-21T13:25:42.214Z,6.60
2017-12-21T13:28:10.522Z,6.70
2017-12-21T13:30:38.853Z,6.70
2017-12-21T13:33:07.172Z,6.70
2017-12-21T13:35:35.508Z,6.70
2017-12-21T13:38:04.578Z,6.70
2017-12-21T13:40:32.894Z,6.70
2017-12-21T13:43:01.276Z,6.70
2017-12-21T13:45:29.617Z,6.80
2017-12-21T13:47:57.942Z,6.80
2017-12-21T13:50:26.254Z,6.80
2017-12-21T13:52:55.346Z,6.90
2017-12-21T13:55:23.666Z,6.90
2017-12-21T14:00:52.216Z,6.90
2017-12-21T14:03:20.538Z,6.90
2017-12-21T14:05:48.843Z,6.90
2017-12-21T14:08:17.184Z,6.90
2017-12-21T14:10:45.504Z,6.90
2017-12-21T14:13:14.626Z,7.00
2017-12-21T14:15:43.733Z,6.90
2017-12-21T14:18:12.040Z,6.90
2017-12-21T14:20:40.383Z,6.90
2017-12-21T14:23:08.767Z,6.90
2017-12-21T14:25:37.098Z,6.90
2017-12-21T14:28:05.420Z,6.90
2017-12-21T14:30:33.752Z,6.90
2017-12-21T14:33:02.061Z,6.90
2017-12-21T14:35:30.432Z,6.90
2017-12-21T14:37:58.744Z,6.80
2017-12-21T14:40:27.069Z,6.90
2017-12-21T14:42:55.394Z,6.90
2017-12-21T14:45:23.857Z,6.90
2017-12-21T14:47:52.212Z,6.90
2017-12-21T14:50:21.293Z,6.90
2017-12-21T14:52:49.698Z,6.90
2017-12-21T14:55:18.150Z,6.90
2017-12-21T14:57:47.246Z,6.90
2017-12-21T15:00:15.561Z,6.90
2017-12-21T15:02:44.644Z,6.90
2017-12-21T15:05:12.978Z,6.90
2017-12-21T15:07:41.466Z,6.90
2017-12-21T15:10:09.787Z,6.90
2017-12-21T15:12:38.233Z,6.90
2017-12-21T15:15:06.562Z,6.90
2017-12-21T15:17:34.903Z,6.90
2017-12-21T15:20:03.249Z,7.00
2017-12-21T15:22:31.563Z,7.00
2017-12-21T15:24:59.866Z,6.90
2017-12-21T15:27:28.218Z,7.00
2017-12-21T15:29:56.541Z,7.00
2017-12-21T15:32:24.921Z,7.00
2017-12-21T15:34:53.253Z,7.00
2017-12-21T15:37:21.602Z,7.00
2017-12-21T15:39:49.902Z,7.00
2017-12-21T15:42:18.242Z,7.00
2017-12-21T15:44:46.546Z,6.90
2017-12-21T15:47:14.873Z,6.90
2017-12-21T15:49:44.005Z,7.00
2017-12-21T15:52:12.383Z,7.00
2017-12-21T15:54:41.502Z,6.90
2017-12-21T15:57:10.607Z,6.90
2017-12-21T15:59:38.928Z,6.90
2017-12-21T16:02:07.222Z,6.90
2017-12-21T16:04:35.557Z,6.90
2017-12-21T16:07:03.873Z,6.90
2017-12-21T16:09:32.196Z,6.90
2017-12-21T16:12:00.490Z,6.90
2017-12-21T16:14:28.809Z,6.90
2017-12-21T16:16:57.124Z,6.90
2017-12-21T16:19:26.193Z,7.00
2017-12-21T16:21:54.513Z,7.00
2017-12-21T16:24:22.946Z,7.00
2017-12-21T16:26:52.033Z,7.00
2017-12-21T16:29:20.417Z,7.00
2017-12-21T16:31:48.718Z,7.00
2017-12-21T16:34:17.041Z,7.00
2017-12-21T16:36:45.356Z,7.00
2017-12-21T16:39:13.677Z,7.00
2017-12-21T16:41:42.924Z,7.10
2017-12-21T16:44:11.273Z,7.00
2017-12-21T16:46:39.584Z,6.80
2017-12-21T16:49:07.944Z,7.00
2017-12-21T16:51:36.262Z,7.00
2017-12-21T16:54:04.562Z,7.00
2017-12-21T16:56:32.920Z,7.00
2017-12-21T16:59:02.025Z,7.00
2017-12-21T17:01:30.390Z,7.00
2017-12-21T17:03:58.701Z,7.00
2017-12-21T17:06:26.992Z,7.00
2017-12-21T17:08:55.332Z,7.10
2017-12-21T17:11:23.638Z,7.00
2017-12-21T17:13:51.976Z,7.00
2017-12-21T17:16:20.388Z,7.00
2017-12-21T17:18:48.713Z,7.00
2017-12-21T17:21:17.033Z,7.00
2017-12-21T17:23:45.384Z,6.90
2017-12-21T17:26:13.699Z,7.00
2017-12-21T17:28:42.807Z,7.00
2017-12-21T17:31:11.131Z,7.00
2017-12-21T17:33:39.514Z,7.00
2017-12-21T17:36:07.850Z,7.00
2017-12-21T17:38:36.147Z,7.00
2017-12-21T17:41:04.516Z,7.00
2017-12-21T17:43:32.841Z,7.00
2017-12-21T17:46:01.902Z,7.10
2017-12-21T17:48:31.138Z,7.10
2017-12-21T17:50:59.443Z,7.00
2017-12-21T17:53:27.875Z,7.00
2017-12-21T17:55:56.216Z,7.00
2017-12-21T17:58:25.298Z,7.00
2017-12-21T18:00:53.596Z,6.90
2017-12-21T18:03:21.919Z,7.00
2017-12-21T18:05:51.095Z,6.90
2017-12-21T18:08:19.430Z,6.90
2017-12-21T18:10:47.774Z,6.90
2017-12-21T18:13:16.092Z,6.90
2017-12-21T18:15:44.408Z,6.90
2017-12-21T18:18:12.701Z,6.90
2017-12-21T18:20:41.023Z,6.90
2017-12-21T18:23:09.351Z,6.90
2017-12-21T18:25:37.701Z,6.90
2017-12-21T18:28:06.021Z,6.90
2017-12-21T18:30:38.308Z,6.90
2017-12-21T18:33:06.623Z,6.80
2017-12-21T18:35:34.953Z,6.80
2017-12-21T18:38:03.271Z,6.80
2017-12-21T18:40:31.580Z,6.80
2017-12-21T18:43:00.658Z,6.80
2017-12-21T18:45:28.968Z,6.80
2017-12-21T18:47:57.306Z,6.80
2017-12-21T18:50:26.399Z,6.80
2017-12-21T18:52:55.493Z,6.80
2017-12-21T18:55:23.854Z,6.80
2017-12-21T18:57:52.926Z,6.80
2017-12-21T19:00:21.247Z,6.80
2017-12-21T19:02:49.598Z,6.80
2017-12-21T19:05:18.018Z,6.70
2017-12-21T19:07:46.381Z,6.60
2017-12-21T19:10:15.474Z,6.60
2017-12-21T19:12:43.783Z,6.60
2017-12-21T19:15:12.130Z,6.60
2017-12-21T19:17:40.427Z,6.60
2017-12-21T19:20:08.731Z,6.60
2017-12-21T19:22:37.051Z,6.60
2017-12-21T19:25:05.436Z,6.60
2017-12-21T19:27:33.823Z,6.60
2017-12-21T19:30:02.120Z,6.50
2017-12-21T19:32:30.551Z,6.50
2017-12-21T19:34:59.432Z,6.50
2017-12-21T19:37:27.801Z,6.60
2017-12-21T19:39:56.324Z,6.60
2017-12-21T19:42:24.787Z,6.60
2017-12-21T19:44:53.814Z,6.50
2017-12-21T19:47:22.170Z,6.50
2017-12-21T19:49:51.249Z,6.60
2017-12-21T19:52:19.591Z,6.50
2017-12-21T19:54:47.904Z,6.60
2017-12-21T19:57:16.233Z,6.30
2017-12-21T19:59:45.365Z,6.60
2017-12-21T20:02:13.967Z,6.60
2017-12-21T20:04:43.611Z,6.60
2017-12-21T20:07:12.430Z,6.60
2017-12-21T20:09:40.725Z,6.60
2017-12-21T20:12:09.859Z,6.60
2017-12-21T20:14:39.050Z,6.60
2017-12-21T20:17:07.364Z,6.60
2017-12-21T20:19:35.668Z,6.60
2017-12-21T20:22:04.033Z,6.60
2017-12-21T20:24:32.358Z,6.60
2017-12-21T20:27:00.691Z,6.60
2017-12-21T20:29:28.995Z,6.70
2017-12-21T20:31:57.347Z,6.60
2017-12-21T20:34:25.738Z,6.60
2017-12-21T20:36:54.953Z,6.60
2017-12-21T20:39:23.630Z,6.60
2017-12-21T20:41:51.967Z,6.60
2017-12-21T20:44:21.050Z,6.50
2017-12-21T20:46:49.386Z,6.50
2017-12-21T20:49:18.474Z,6.70
2017-12-21T20:51:46.832Z,6.70
2017-12-21T20:54:15.897Z,6.60
2017-12-21T20:56:44.234Z,6.60
2017-12-21T20:59:13.312Z,6.50
2017-12-21T21:01:41.641Z,6.50
2017-12-21T21:04:09.978Z,6.50
2017-12-21T21:06:39.083Z,6.50
2017-12-21T21:09:07.384Z,6.50
2017-12-21T21:11:35.797Z,6.50
2017-12-21T21:14:04.146Z,6.50
2017-12-21T21:16:32.462Z,6.40
2017-12-21T21:19:00.785Z,6.50
2017-12-21T21:21:29.103Z,6.50
2017-12-21T21:23:57.517Z,6.50
2017-12-21T21:26:25.818Z,6.50
2017-12-21T21:28:54.213Z,6.40
2017-12-21T21:31:22.536Z,6.50
2017-12-21T21:33:51.642Z,6.40
2017-12-21T21:36:19.967Z,6.40
2017-12-21T21:38:48.299Z,6.40
2017-12-21T21:41:16.686Z,6.40
2017-12-21T21:43:44.992Z,6.40
2017-12-21T21:46:13.326Z,6.40
2017-12-21T21:48:41.748Z,6.40
2017-12-21T21:51:10.084Z,6.50
2017-12-21T21:53:38.395Z,6.40
2017-12-21T21:56:07.488Z,6.40
2017-12-21T21:58:35.905Z,6.40
2017-12-21T22:01:04.299Z,6.50
2017-12-21T22:03:32.595Z,6.50
2017-12-21T22:06:01.943Z,6.50
2017-12-21T22:08:30.419Z,6.40
2017-12-21T22:10:59.022Z,6.40
2017-12-21T22:13:27.638Z,6.40
2017-12-21T22:15:56.243Z,6.50
2017-12-21T22:18:24.886Z,6.50
2017-12-21T22:20:53.299Z,6.50
2017-12-21T22:23:21.610Z,6.50
2017-12-21T22:25:50.007Z,6.50
2017-12-21T22:28:18.980Z,6.50
2017-12-21T22:30:48.061Z,6.50
2017-12-21T22:33:16.376Z,6.50
2017-12-21T22:35:44.723Z,6.50
2017-12-21T22:38:13.055Z,6.50
2017-12-21T22:40:41.388Z,6.50
2017-12-21T22:43:09.683Z,6.50
2017-12-21T22:45:38.033Z,6.50
2017-12-21T22:48:06.357Z,6.50
2017-12-21T22:50:35.459Z,6.50
2017-12-21T22:53:05.430Z,6.50
2017-12-21T22:55:34.337Z,6.50
2017-12-21T22:58:02.694Z,6.50
2017-12-21T23:00:31.112Z,6.50
2017-12-21T23:02:59.460Z,6.50
2017-12-21T23:05:28.596Z,6.50
2017-12-21T23:07:58.274Z,6.50
2017-12-21T23:10:26.583Z,6.50
2017-12-21T23:12:54.903Z,6.50
2017-12-21T23:15:23.218Z,6.50
2017-12-21T23:17:51.588Z,6.50
2017-12-21T23:20:19.901Z,6.50
2017-12-21T23:22:48.248Z,6.50
2017-12-21T23:25:16.557Z,6.50
2017-12-21T23:27:44.948Z,6.50
2017-12-21T23:30:13.273Z,6.50
2017-12-21T23:32:42.597Z,6.50
2017-12-21T23:35:10.919Z,6.50
2017-12-21T23:37:39.369Z,6.50
2017-12-21T23:40:07.703Z,6.50
2017-12-21T23:42:36.029Z,6.50
2017-12-21T23:45:05.148Z,6.50
2017-12-21T23:47:33.442Z,6.50
2017-12-21T23:50:02.611Z,6.50
2017-12-21T23:52:30.947Z,6.50
2017-12-21T23:55:00.030Z,6.60
2017-12-21T23:57:28.349Z,6.60
2017-12-21T23:59:56.651Z,6.60
